Time;durP1;ratioP1;P1;durP2;ratioP2;P2;SDS_P1;SDS_P2;PMS_P1;PMS_P2;Temp;Humidity;BMP_temperature;BMP_pressure;BME280_temperature;BME280_humidity;BME280_pressure;Samples;Min_cycle;Max_cycle;Signal;HPM_P1;HPM_P2
2023/03/01 00:01:04;;;;;;;21.40;13.60;;;;;;;;;;5116723;28;20466;-72
2023/03/01 00:03:31;;;;;;;15.60;9.73;;;;;;;;;;5116719;28;20461;-72
2023/03/01 00:05:58;;;;;;;26.20;14.13;;;;;;;;;;5116487;28;20449;-72
2023/03/01 00:08:25;;;;;;;24.03;13.00;;;;;;;;;;5116653;28;20455;-72
2023/03/01 00:11:01;;;;;;;15.30;10.30;;;;;;;;;;5116541;28;20500;-72
2023/03/01 00:13:28;;;;;;;20.57;13.10;;;;;;;;;;5116209;28;20456;-72
2023/03/01 00:15:56;;;;;;;27.63;8.23;;;;;;;;;;5116646;28;20449;-72
2023/03/01 00:18:23;;;;;;;20.13;13.13;;;;;;;;;;5115970;28;20956;-73
2023/03/01 00:20:51;;;;;;;16.20;10.80;;;;;;;;;;5116470;28;20465;-72
2023/03/01 00:23:18;;;;;;;22.10;12.00;;;;;;;;;;5116416;28;20795;-72
2023/03/01 00:25:46;;;;;;;18.30;11.27;;;;;;;;;;5116112;28;20446;-73
2023/03/01 00:28:13;;;;;;;26.00;14.90;;;;;;;;;;5116391;28;20449;-72
2023/03/01 00:30:40;;;;;;;26.63;15.63;;;;;;;;;;5116170;28;21016;-72
2023/03/01 00:33:08;;;;;;;9.30;5.50;;;;;;;;;;5116260;28;20449;-71
2023/03/01 00:35:36;;;;;;;31.33;13.50;;;;;;;;;;5116413;28;20821;-72
2023/03/01 00:38:03;;;;;;;19.37;12.60;;;;;;;;;;5115972;28;20480;-72
2023/03/01 00:40:31;;;;;;;24.17;14.10;;;;;;;;;;5115797;28;20473;-72
2023/03/01 00:42:58;;;;;;;21.20;13.00;;;;;;;;;;5115951;28;20456;-72
2023/03/01 00:45:25;;;;;;;26.17;15.67;;;;;;;;;;5115850;28;20456;-72
2023/03/01 00:47:53;;;;;;;36.63;15.30;;;;;;;;;;5116014;28;20450;-72
2023/03/01 00:50:21;;;;;;;22.83;13.27;;;;;;;;;;5115270;28;20486;-72
2023/03/01 00:52:49;;;;;;;22.30;13.60;;;;;;;;;;5114948;28;20452;-72
2023/03/01 00:55:16;;;;;;;34.10;14.00;;;;;;;;;;5114957;28;21170;-72
2023/03/01 00:57:43;;;;;;;14.50;9.00;;;;;;;;;;5115852;28;20454;-72
2023/03/01 01:00:11;;;;;;;24.70;13.60;;;;;;;;;;5115607;28;20472;-72
2023/03/01 01:02:38;;;;;;;27.60;15.43;;;;;;;;;;5115726;28;20522;-72
2023/03/01 01:05:06;;;;;;;30.90;17.37;;;;;;;;;;5115505;28;20454;-73
2023/03/01 01:07:34;;;;;;;33.03;16.17;;;;;;;;;;5115851;28;20454;-72
2023/03/01 01:10:02;;;;;;;23.57;13.00;;;;;;;;;;5115739;28;20591;-72
2023/03/01 01:12:29;;;;;;;28.37;16.63;;;;;;;;;;5115566;28;20952;-73
2023/03/01 01:14:56;;;;;;;25.90;12.87;;;;;;;;;;5115489;28;20548;-72
2023/03/01 01:17:23;;;;;;;28.73;15.27;;;;;;;;;;5115645;28;20930;-72
2023/03/01 01:19:52;;;;;;;30.00;15.50;;;;;;;;;;5115500;28;20477;-72
2023/03/01 01:22:20;;;;;;;31.50;14.80;;;;;;;;;;5115344;28;20479;-72
2023/03/01 01:24:50;;;;;;;21.20;12.83;;;;;;;;;;5115359;28;20442;-72
2023/03/01 01:27:17;;;;;;;28.83;16.57;;;;;;;;;;5115532;28;20454;-72
2023/03/01 01:29:45;;;;;;;17.57;9.83;;;;;;;;;;5114911;28;20470;-72
2023/03/01 01:32:12;;;;;;;22.70;14.03;;;;;;;;;;5114994;28;20579;-72
2023/03/01 01:34:39;;;;;;;27.10;15.77;;;;;;;;;;5115008;28;20938;-72
2023/03/01 01:37:07;;;;;;;29.43;15.20;;;;;;;;;;5115267;28;20458;-72
2023/03/01 01:39:34;;;;;;;28.03;12.90;;;;;;;;;;5114936;28;20828;-72
2023/03/01 01:42:03;;;;;;;11.67;8.87;;;;;;;;;;5114970;28;20939;-72
2023/03/01 01:44:30;;;;;;;31.33;13.93;;;;;;;;;;5115027;28;20935;-72
2023/03/01 01:46:58;;;;;;;24.30;14.27;;;;;;;;;;5114992;28;20453;-72
2023/03/01 01:49:28;;;;;;;24.10;13.67;;;;;;;;;;5114693;28;20461;-72
2023/03/01 01:51:58;;;;;;;21.50;12.97;;;;;;;;;;5115039;28;20481;-72
2023/03/01 01:54:27;;;;;;;26.67;14.17;;;;;;;;;;5115063;28;20446;-72
2023/03/01 01:56:56;;;;;;;31.10;17.50;;;;;;;;;;5114661;28;20458;-72
2023/03/01 01:59:26;;;;;;;26.23;13.80;;;;;;;;;;5114791;28;20446;-72
2023/03/01 02:01:54;;;;;;;28.10;14.20;;;;;;;;;;5114618;28;20444;-72
2023/03/01 02:04:21;;;;;;;18.57;11.07;;;;;;;;;;5114343;28;20464;-71
2023/03/01 02:06:51;;;;;;;28.73;12.30;;;;;;;;;;5114373;28;20446;-72
2023/03/01 02:09:20;;;;;;;21.00;13.73;;;;;;;;;;5114689;28;20939;-72
2023/03/01 02:11:48;;;;;;;29.33;14.60;;;;;;;;;;5114206;28;20990;-72
2023/03/01 02:14:16;;;;;;;27.93;15.67;;;;;;;;;;5114286;28;20456;-72
2023/03/01 02:16:44;;;;;;;20.10;12.47;;;;;;;;;;5114276;28;20958;-72
2023/03/01 02:19:15;;;;;;;22.00;13.30;;;;;;;;;;5114282;28;20813;-72
2023/03/01 02:21:45;;;;;;;26.93;15.33;;;;;;;;;;5114263;28;20457;-72
2023/03/01 02:24:19;;;;;;;21.13;11.53;;;;;;;;;;5114111;28;20441;-72
2023/03/01 02:26:49;;;;;;;16.60;9.97;;;;;;;;;;5114260;28;20812;-71
2023/03/01 02:29:18;;;;;;;18.97;11.07;;;;;;;;;;5114566;28;20434;-72
2023/03/01 02:31:45;;;;;;;22.53;10.40;;;;;;;;;;5113892;28;20493;-72
2023/03/01 02:34:14;;;;;;;17.20;10.17;;;;;;;;;;5113751;28;20453;-71
2023/03/01 02:36:42;;;;;;;18.53;11.57;;;;;;;;;;5114066;28;20465;-71
2023/03/01 02:39:14;;;;;;;13.53;6.30;;;;;;;;;;5113679;28;20453;-71
2023/03/01 02:41:42;;;;;;;28.73;16.50;;;;;;;;;;5113931;27;20966;-72
2023/03/01 02:44:10;;;;;;;25.70;14.00;;;;;;;;;;5113376;28;20446;-71
2023/03/01 02:46:45;;;;;;;25.47;16.97;;;;;;;;;;5113885;28;20454;-71
2023/03/01 02:49:20;;;;;;;31.03;13.03;;;;;;;;;;5113596;28;20523;-71
2023/03/01 02:51:52;;;;;;;19.37;13.80;;;;;;;;;;5113572;28;20506;-72
2023/03/01 02:54:23;;;;;;;21.53;10.37;;;;;;;;;;5113705;28;20453;-71
2023/03/01 02:56:50;;;;;;;29.03;15.30;;;;;;;;;;5113943;28;20742;-72
2023/03/01 02:59:19;;;;;;;21.00;10.60;;;;;;;;;;5113683;28;20457;-71
2023/03/01 03:01:48;;;;;;;20.73;10.70;;;;;;;;;;5113733;28;20446;-72
2023/03/01 03:04:16;;;;;;;26.23;14.43;;;;;;;;;;5113452;28;20876;-71
2023/03/01 03:06:44;;;;;;;18.90;12.23;;;;;;;;;;5113690;28;20499;-72
2023/03/01 03:09:11;;;;;;;26.97;13.63;;;;;;;;;;5113495;28;20434;-71
2023/03/01 03:11:40;;;;;;;12.60;8.73;;;;;;;;;;5113349;28;20495;-71
2023/03/01 03:14:12;;;;;;;15.00;10.57;;;;;;;;;;5113110;28;20449;-72
2023/03/01 03:16:41;;;;;;;19.83;10.63;;;;;;;;;;5120071;28;20924;-71
2023/03/01 03:19:09;;;;;;;30.40;15.40;;;;;;;;;;5120064;28;20449;-72
2023/03/01 03:21:36;;;;;;;22.60;13.67;;;;;;;;;;5120470;28;20817;-71
2023/03/01 03:24:04;;;;;;;21.83;12.33;;;;;;;;;;5120134;28;20456;-72
2023/03/01 03:26:31;;;;;;;27.23;13.10;;;;;;;;;;5120202;28;20454;-72
2023/03/01 03:28:59;;;;;;;19.47;11.13;;;;;;;;;;5119854;28;20445;-72
2023/03/01 03:31:26;;;;;;;27.13;14.27;;;;;;;;;;5120050;28;20485;-72
2023/03/01 03:33:53;;;;;;;27.10;14.07;;;;;;;;;;5120039;28;20965;-72
2023/03/01 03:36:24;;;;;;;20.70;11.27;;;;;;;;;;5120002;28;20802;-72
2023/03/01 03:38:51;;;;;;;30.10;13.67;;;;;;;;;;5120072;28;20837;-71
2023/03/01 03:41:18;;;;;;;29.50;13.47;;;;;;;;;;5119808;28;20970;-71
2023/03/01 03:43:45;;;;;;;25.47;12.97;;;;;;;;;;5120255;28;20453;-72
2023/03/01 03:46:13;;;;;;;24.03;16.30;;;;;;;;;;5120052;28;21010;-71
2023/03/01 03:48:41;;;;;;;18.47;9.97;;;;;;;;;;5120181;28;20449;-71
2023/03/01 03:51:11;;;;;;;26.83;12.67;;;;;;;;;;5119973;28;20485;-71
2023/03/01 03:53:39;;;;;;;27.57;13.50;;;;;;;;;;5120309;28;20817;-71
2023/03/01 03:56:07;;;;;;;22.83;13.83;;;;;;;;;;5119902;28;20460;-72
2023/03/01 03:58:34;;;;;;;30.50;15.50;;;;;;;;;;5119988;28;20796;-72
2023/03/01 04:01:02;;;;;;;11.17;7.27;;;;;;;;;;5120221;28;20473;-71
2023/03/01 04:03:30;;;;;;;30.50;13.00;;;;;;;;;;5119868;28;20829;-71
2023/03/01 04:05:58;;;;;;;23.17;14.07;;;;;;;;;;5120119;28;20456;-71
2023/03/01 04:08:25;;;;;;;16.60;8.80;;;;;;;;;;5119831;28;20457;-71
2023/03/01 04:10:58;;;;;;;19.37;12.07;;;;;;;;;;5119766;28;20465;-71
2023/03/01 04:13:25;;;;;;;16.53;10.57;;;;;;;;;;5119748;28;20441;-71
2023/03/01 04:15:53;;;;;;;19.27;11.10;;;;;;;;;;5120010;28;20441;-71
2023/03/01 04:18:21;;;;;;;22.37;11.13;;;;;;;;;;5119653;28;20441;-71
2023/03/01 04:20:48;;;;;;;37.67;14.97;;;;;;;;;;5119871;28;20461;-71
2023/03/01 04:23:19;;;;;;;21.40;11.03;;;;;;;;;;5119379;28;20799;-72
2023/03/01 04:25:49;;;;;;;21.33;10.80;;;;;;;;;;5119388;28;20437;-71
2023/03/01 04:28:17;;;;;;;21.10;9.40;;;;;;;;;;5115270;28;20489;-71
2023/03/01 04:30:44;;;;;;;25.27;10.73;;;;;;;;;;5116572;28;20469;-71
2023/03/01 04:33:12;;;;;;;17.50;9.10;;;;;;;;;;5116554;28;20492;-71
2023/03/01 04:35:40;;;;;;;25.80;13.13;;;;;;;;;;5116605;28;20429;-71
2023/03/01 04:38:07;;;;;;;16.07;11.83;;;;;;;;;;5116158;28;20457;-71
2023/03/01 04:40:34;;;;;;;22.90;12.40;;;;;;;;;;5116101;28;20847;-71
2023/03/01 04:43:02;;;;;;;14.20;9.23;;;;;;;;;;5116064;28;20934;-71
2023/03/01 04:45:30;;;;;;;26.83;13.60;;;;;;;;;;5115813;28;20454;-71
2023/03/01 04:47:58;;;;;;;23.10;15.17;;;;;;;;;;5116294;28;20454;-71
2023/03/01 04:50:25;;;;;;;36.43;15.93;;;;;;;;;;5116259;28;20481;-71
2023/03/01 04:52:53;;;;;;;28.60;15.30;;;;;;;;;;5115992;28;20489;-71
2023/03/01 04:55:20;;;;;;;31.83;17.60;;;;;;;;;;5115765;27;20883;-71
2023/03/01 04:57:48;;;;;;;27.33;13.13;;;;;;;;;;5115904;28;20461;-72
2023/03/01 05:00:21;;;;;;;22.90;12.37;;;;;;;;;;5115696;28;20969;-71
2023/03/01 05:02:53;;;;;;;28.40;15.97;;;;;;;;;;5115801;28;20453;-71
2023/03/01 05:05:21;;;;;;;26.87;13.10;;;;;;;;;;5116132;28;20903;-71
2023/03/01 05:07:48;;;;;;;20.60;10.93;;;;;;;;;;5115715;28;20930;-71
2023/03/01 05:10:16;;;;;;;24.13;14.53;;;;;;;;;;5115885;28;20474;-71
2023/03/01 05:12:43;;;;;;;25.97;14.93;;;;;;;;;;5115653;28;21097;-72
2023/03/01 05:15:10;;;;;;;24.20;12.80;;;;;;;;;;5115274;28;20446;-72
2023/03/01 05:17:37;;;;;;;31.33;15.60;;;;;;;;;;5115661;28;20445;-72
2023/03/01 05:20:09;;;;;;;25.50;12.30;;;;;;;;;;5115285;28;20473;-71
2023/03/01 05:22:37;;;;;;;28.50;14.70;;;;;;;;;;5115558;28;20977;-72
2023/03/01 05:25:04;;;;;;;31.63;16.07;;;;;;;;;;5115626;28;20941;-72
2023/03/01 05:27:31;;;;;;;30.30;16.00;;;;;;;;;;5115299;28;20449;-72
2023/03/01 05:29:58;;;;;;;23.33;14.33;;;;;;;;;;5114999;28;20469;-72
2023/03/01 05:32:26;;;;;;;31.20;16.43;;;;;;;;;;5115302;28;20485;-72
2023/03/01 05:34:54;;;;;;;24.30;12.40;;;;;;;;;;5115114;28;20510;-72
2023/03/01 05:37:23;;;;;;;31.37;14.67;;;;;;;;;;5115126;28;20450;-73
2023/03/01 05:39:51;;;;;;;34.27;16.10;;;;;;;;;;5114843;28;20465;-72
2023/03/01 05:42:18;;;;;;;30.13;15.33;;;;;;;;;;5115323;28;20461;-72
2023/03/01 05:44:45;;;;;;;21.57;13.40;;;;;;;;;;5114881;28;20477;-71
2023/03/01 05:47:12;;;;;;;22.97;14.53;;;;;;;;;;5114750;28;20450;-71
2023/03/01 05:49:40;;;;;;;24.60;12.40;;;;;;;;;;5114860;28;20442;-71
2023/03/01 05:52:07;;;;;;;20.80;12.63;;;;;;;;;;5114287;28;20504;-72
2023/03/01 05:54:35;;;;;;;28.17;11.87;;;;;;;;;;5114090;28;20449;-71
2023/03/01 05:57:02;;;;;;;20.00;11.27;;;;;;;;;;5114443;28;20808;-72
2023/03/01 05:59:29;;;;;;;24.80;11.30;;;;;;;;;;5114516;28;20453;-71
2023/03/01 06:01:57;;;;;;;32.47;17.57;;;;;;;;;;5114390;28;20446;-71
2023/03/01 06:04:24;;;;;;;35.13;16.13;;;;;;;;;;5114005;28;20560;-71
2023/03/01 06:06:51;;;;;;;24.47;14.27;;;;;;;;;;5114332;28;20450;-70
2023/03/01 06:09:18;;;;;;;24.47;13.07;;;;;;;;;;5114032;28;20877;-72
2023/03/01 06:11:46;;;;;;;26.87;15.67;;;;;;;;;;5114353;28;20496;-71
2023/03/01 06:14:14;;;;;;;31.30;15.80;;;;;;;;;;5110861;28;20464;-71
2023/03/01 06:16:41;;;;;;;27.80;15.33;;;;;;;;;;5112351;27;20468;-71
2023/03/01 06:19:08;;;;;;;30.77;14.63;;;;;;;;;;5113120;28;20430;-72
2023/03/01 06:21:35;;;;;;;38.20;17.80;;;;;;;;;;5112804;28;20469;-71
2023/03/01 06:24:02;;;;;;;40.07;16.07;;;;;;;;;;5112688;28;20445;-71
2023/03/01 06:26:29;;;;;;;22.33;12.80;;;;;;;;;;5112995;28;20458;-71
2023/03/01 06:28:58;;;;;;;31.37;16.70;;;;;;;;;;5112094;28;20453;-72
2023/03/01 06:31:25;;;;;;;25.43;14.00;;;;;;;;;;5112171;28;20553;-72
2023/03/01 06:33:52;;;;;;;28.10;15.80;;;;;;;;;;5112050;28;20458;-72
2023/03/01 06:36:20;;;;;;;24.43;12.50;;;;;;;;;;5112174;28;20488;-72
2023/03/01 06:38:48;;;;;;;23.63;11.47;;;;;;;;;;5112229;28;20510;-72
2023/03/01 06:41:15;;;;;;;31.30;16.20;;;;;;;;;;5112289;28;20986;-72
2023/03/01 06:43:42;;;;;;;20.23;12.83;;;;;;;;;;5111553;28;20449;-72
2023/03/01 06:46:10;;;;;;;32.27;16.07;;;;;;;;;;5112317;28;20964;-72
2023/03/01 06:48:38;;;;;;;23.03;13.00;;;;;;;;;;5111952;28;20456;-72
2023/03/01 06:51:05;;;;;;;28.47;14.00;;;;;;;;;;5111193;28;20600;-72
2023/03/01 06:53:32;;;;;;;23.10;10.80;;;;;;;;;;5112119;28;20485;-73
2023/03/01 06:55:59;;;;;;;26.57;12.03;;;;;;;;;;5111971;28;20937;-73
2023/03/01 06:58:27;;;;;;;25.30;12.77;;;;;;;;;;5111787;28;20945;-73
2023/03/01 07:00:54;;;;;;;26.73;13.60;;;;;;;;;;5111709;28;20489;-72
2023/03/01 07:03:23;;;;;;;24.13;14.37;;;;;;;;;;5111921;28;20456;-72
2023/03/01 07:05:52;;;;;;;27.90;13.27;;;;;;;;;;5112862;28;20497;-72
2023/03/01 07:08:19;;;;;;;21.90;13.43;;;;;;;;;;5112904;28;20861;-73
2023/03/01 07:10:46;;;;;;;27.80;13.70;;;;;;;;;;5113067;28;20564;-73
2023/03/01 07:13:13;;;;;;;27.63;15.43;;;;;;;;;;5113006;28;20493;-73
2023/03/01 07:15:42;;;;;;;23.93;14.20;;;;;;;;;;5113154;28;20441;-73
2023/03/01 07:18:09;;;;;;;28.10;16.33;;;;;;;;;;5113463;28;20491;-73
2023/03/01 07:20:37;;;;;;;28.23;15.03;;;;;;;;;;5113240;28;20465;-72
2023/03/01 07:23:06;;;;;;;20.93;13.80;;;;;;;;;;5113062;28;20456;-73
2023/03/01 07:25:33;;;;;;;29.07;14.00;;;;;;;;;;5113016;28;20461;-73
2023/03/01 07:28:00;;;;;;;30.40;16.67;;;;;;;;;;5113109;28;20457;-73
2023/03/01 07:30:28;;;;;;;21.00;12.60;;;;;;;;;;5113135;28;20480;-73
2023/03/01 07:32:55;;;;;;;24.73;14.50;;;;;;;;;;5110217;28;20486;-74
2023/03/01 07:35:22;;;;;;;38.63;19.07;;;;;;;;;;5111712;28;20464;-73
2023/03/01 07:37:51;;;;;;;31.07;16.73;;;;;;;;;;5111753;28;20452;-73
2023/03/01 07:40:18;;;;;;;27.63;17.40;;;;;;;;;;5111750;28;20478;-73
2023/03/01 07:42:45;;;;;;;36.27;21.00;;;;;;;;;;5111825;28;20445;-74
2023/03/01 07:45:13;;;;;;;26.43;16.80;;;;;;;;;;5112308;28;20453;-73
2023/03/01 07:47:40;;;;;;;35.70;17.83;;;;;;;;;;5112050;28;20538;-73
2023/03/01 07:50:08;;;;;;;47.27;19.90;;;;;;;;;;5111848;28;20852;-73
2023/03/01 07:52:35;;;;;;;39.60;16.70;;;;;;;;;;5111866;28;20485;-74
2023/03/01 07:55:03;;;;;;;32.03;17.80;;;;;;;;;;5111306;28;20455;-73
2023/03/01 07:57:31;;;;;;;22.40;13.77;;;;;;;;;;5111818;28;20930;-73
2023/03/01 07:59:58;;;;;;;31.13;17.50;;;;;;;;;;5111408;28;20554;-73
2023/03/01 08:02:25;;;;;;;24.80;13.50;;;;;;;;;;5114228;28;20825;-73
2023/03/01 08:04:52;;;;;;;30.93;18.07;;;;;;;;;;5114858;28;20454;-74
2023/03/01 08:07:19;;;;;;;29.13;16.27;;;;;;;;;;5115505;28;20453;-74
2023/03/01 08:09:47;;;;;;;25.43;15.40;;;;;;;;;;5115169;28;20469;-74
2023/03/01 08:12:16;;;;;;;22.93;15.47;;;;;;;;;;5115075;28;20963;-73
2023/03/01 08:14:43;;;;;;;27.93;16.80;;;;;;;;;;5115235;28;20460;-74
2023/03/01 08:17:10;;;;;;;27.57;16.20;;;;;;;;;;5114742;28;20464;-74
2023/03/01 08:19:42;;;;;;;24.03;15.47;;;;;;;;;;5115008;28;20445;-74
2023/03/01 08:22:10;;;;;;;32.03;15.97;;;;;;;;;;5115488;28;20511;-73
2023/03/01 08:24:37;;;;;;;34.83;17.87;;;;;;;;;;5115214;28;20449;-73
2023/03/01 08:27:05;;;;;;;19.73;13.07;;;;;;;;;;5114959;28;20460;-73
2023/03/01 08:29:34;;;;;;;33.73;16.60;;;;;;;;;;5114616;28;20456;-74
2023/03/01 08:32:01;;;;;;;28.80;16.40;;;;;;;;;;5115000;28;20449;-74
2023/03/01 08:34:29;;;;;;;26.80;16.13;;;;;;;;;;5114564;28;20473;-74
2023/03/01 08:36:56;;;;;;;21.80;13.83;;;;;;;;;;5114906;28;20678;-73
2023/03/01 08:39:23;;;;;;;29.00;16.53;;;;;;;;;;5114568;28;20811;-74
2023/03/01 08:41:50;;;;;;;19.93;12.67;;;;;;;;;;5114716;28;20852;-73
2023/03/01 08:44:17;;;;;;;26.47;16.27;;;;;;;;;;5114822;28;20457;-73
2023/03/01 08:46:46;;;;;;;29.57;18.67;;;;;;;;;;5111755;28;20856;-74
2023/03/01 08:49:15;;;;;;;26.97;17.40;;;;;;;;;;5111890;28;20469;-73
2023/03/01 08:51:42;;;;;;;23.47;15.10;;;;;;;;;;5114330;28;20469;-73
2023/03/01 08:54:11;;;;;;;23.73;15.10;;;;;;;;;;5113929;28;20485;-73
2023/03/01 08:56:38;;;;;;;26.03;16.87;;;;;;;;;;5113103;28;20483;-73
2023/03/01 08:59:06;;;;;;;22.50;15.90;;;;;;;;;;5114275;28;20827;-73
2023/03/01 09:01:33;;;;;;;25.27;16.63;;;;;;;;;;5114145;28;20468;-73
2023/03/01 09:04:01;;;;;;;25.47;15.97;;;;;;;;;;5113168;28;20950;-73
2023/03/01 09:06:32;;;;;;;27.73;16.53;;;;;;;;;;5114188;28;20949;-73
2023/03/01 09:09:00;;;;;;;34.47;18.70;;;;;;;;;;5113827;28;20501;-73
2023/03/01 09:11:27;;;;;;;26.63;15.47;;;;;;;;;;5113821;28;20472;-73
2023/03/01 09:13:54;;;;;;;27.53;15.47;;;;;;;;;;5114094;28;20856;-72
2023/03/01 09:16:21;;;;;;;27.17;17.27;;;;;;;;;;5114687;28;20816;-73
2023/03/01 09:18:51;;;;;;;34.03;17.33;;;;;;;;;;5114051;28;20480;-73
2023/03/01 09:21:20;;;;;;;26.43;16.83;;;;;;;;;;5114697;28;20469;-73
2023/03/01 09:23:48;;;;;;;20.50;13.20;;;;;;;;;;5114772;28;20458;-73
2023/03/01 09:26:18;;;;;;;27.23;15.07;;;;;;;;;;5114650;28;20453;-73
2023/03/01 09:28:46;;;;;;;24.50;14.80;;;;;;;;;;5114956;28;20458;-73
2023/03/01 09:31:13;;;;;;;34.43;17.20;;;;;;;;;;5114764;28;20473;-73
2023/03/01 09:33:41;;;;;;;27.70;16.47;;;;;;;;;;5114695;28;20515;-73
2023/03/01 09:36:09;;;;;;;30.70;18.53;;;;;;;;;;5114864;28;20449;-73
2023/03/01 09:38:38;;;;;;;30.87;17.00;;;;;;;;;;5114778;28;20938;-73
2023/03/01 09:41:11;;;;;;;42.03;18.07;;;;;;;;;;5114707;28;20496;-73
2023/03/01 09:43:42;;;;;;;29.30;18.37;;;;;;;;;;5114234;28;20824;-73
2023/03/01 09:46:11;;;;;;;32.33;17.97;;;;;;;;;;5114519;28;20453;-73
2023/03/01 09:48:43;;;;;;;27.03;17.70;;;;;;;;;;5114698;28;20457;-73
2023/03/01 09:51:14;;;;;;;30.00;18.07;;;;;;;;;;5114409;28;20509;-71
2023/03/01 09:53:42;;;;;;;34.47;17.80;;;;;;;;;;5114442;28;20482;-71
2023/03/01 09:56:14;;;;;;;31.20;17.93;;;;;;;;;;5114434;28;20465;-73
2023/03/01 09:58:47;;;;;;;38.57;20.37;;;;;;;;;;5114606;28;20813;-73
2023/03/01 10:01:25;;;;;;;27.67;14.97;;;;;;;;;;5114404;28;20474;-73
2023/03/01 10:04:00;;;;;;;43.50;26.90;;;;;;;;;;5113636;28;20515;-71
2023/03/01 10:06:27;;;;;;;24.03;16.70;;;;;;;;;;5114284;28;20452;-73
2023/03/01 10:08:58;;;;;;;24.70;14.63;;;;;;;;;;5114190;28;20464;-73
2023/03/01 10:11:28;;;;;;;27.03;17.90;;;;;;;;;;5114008;28;20821;-71
2023/03/01 10:14:01;;;;;;;28.80;18.60;;;;;;;;;;5113558;28;20863;-73
2023/03/01 10:16:30;;;;;;;24.57;15.17;;;;;;;;;;5114120;28;20460;-72
2023/03/01 10:18:59;;;;;;;23.37;14.00;;;;;;;;;;5113584;28;20934;-73
2023/03/01 10:21:28;;;;;;;30.40;16.73;;;;;;;;;;5114054;28;20470;-73
2023/03/01 10:23:58;;;;;;;30.60;16.83;;;;;;;;;;5113593;28;20441;-73
2023/03/01 10:26:32;;;;;;;23.23;17.33;;;;;;;;;;5113868;28;20450;-73
2023/03/01 10:29:02;;;;;;;23.67;14.30;;;;;;;;;;5113847;28;20452;-73
2023/03/01 10:31:36;;;;;;;25.50;16.93;;;;;;;;;;5113964;28;20530;-73
2023/03/01 10:34:04;;;;;;;22.23;13.60;;;;;;;;;;5113533;28;20487;-73
2023/03/01 10:36:34;;;;;;;25.10;17.13;;;;;;;;;;5113852;28;20930;-73
2023/03/01 10:39:07;;;;;;;28.23;17.77;;;;;;;;;;5113728;28;20558;-73
2023/03/01 10:41:34;;;;;;;25.70;17.03;;;;;;;;;;5113581;28;20488;-73
2023/03/01 10:44:01;;;;;;;32.80;19.20;;;;;;;;;;5113587;28;20915;-73
2023/03/01 10:46:30;;;;;;;20.27;13.67;;;;;;;;;;5113613;28;20445;-73
2023/03/01 10:49:13;;;;;;;24.93;15.50;;;;;;;;;;5113285;28;20457;-73
2023/03/01 10:51:41;;;;;;;24.80;16.97;;;;;;;;;;5113716;28;20820;-72
2023/03/01 10:54:17;;;;;;;30.93;17.23;;;;;;;;;;5113122;28;20485;-73
2023/03/01 10:56:49;;;;;;;26.07;17.53;;;;;;;;;;5113601;28;20942;-73
2023/03/01 10:59:23;;;;;;;22.70;16.90;;;;;;;;;;5113423;28;20503;-73
2023/03/01 11:02:02;;;;;;;26.40;17.27;;;;;;;;;;5113693;28;20452;-73
2023/03/01 11:04:29;;;;;;;24.20;17.10;;;;;;;;;;5112974;28;20457;-73
2023/03/01 11:07:00;;;;;;;25.77;15.10;;;;;;;;;;5113480;28;20476;-73
2023/03/01 11:09:37;;;;;;;29.77;18.30;;;;;;;;;;5113224;28;20450;-73
2023/03/01 11:12:05;;;;;;;27.33;16.87;;;;;;;;;;5113405;28;20815;-73
2023/03/01 11:14:34;;;;;;;27.63;16.30;;;;;;;;;;5113120;28;20477;-73
2023/03/01 11:17:03;;;;;;;33.20;17.00;;;;;;;;;;5113398;28;20910;-73
2023/03/01 11:19:30;;;;;;;34.97;21.90;;;;;;;;;;5113178;28;20946;-73
2023/03/01 11:22:01;;;;;;;23.63;16.77;;;;;;;;;;5113219;28;20970;-73
2023/03/01 11:24:36;;;;;;;27.37;18.53;;;;;;;;;;5113008;28;20471;-73
2023/03/01 11:27:05;;;;;;;28.27;16.60;;;;;;;;;;5113082;28;20461;-73
2023/03/01 11:29:34;;;;;;;25.30;16.30;;;;;;;;;;5112586;28;20454;-73
2023/03/01 11:32:03;;;;;;;23.90;16.20;;;;;;;;;;5113069;28;20493;-73
2023/03/01 11:34:39;;;;;;;24.70;16.03;;;;;;;;;;5112705;28;20488;-73
2023/03/01 11:37:11;;;;;;;28.00;18.13;;;;;;;;;;5115935;28;20821;-73
2023/03/01 11:39:44;;;;;;;24.47;17.00;;;;;;;;;;5117335;28;20457;-73
2023/03/01 11:42:14;;;;;;;24.93;16.20;;;;;;;;;;5117142;28;20457;-73
2023/03/01 11:44:43;;;;;;;24.30;17.53;;;;;;;;;;5116995;28;20441;-73
2023/03/01 11:47:22;;;;;;;24.23;17.27;;;;;;;;;;5116960;28;20512;-73
2023/03/01 11:50:07;;;;;;;25.87;16.40;;;;;;;;;;5117219;28;20486;-73
2023/03/01 11:52:39;;;;;;;21.37;13.00;;;;;;;;;;5116984;28;20449;-73
2023/03/01 11:55:18;;;;;;;22.07;13.27;;;;;;;;;;5116733;28;20481;-73
2023/03/01 11:57:53;;;;;;;23.73;16.77;;;;;;;;;;5117018;28;20449;-73
2023/03/01 12:00:42;;;;;;;27.97;15.90;;;;;;;;;;5116550;28;20473;-73
2023/03/01 12:03:27;;;;;;;26.50;15.80;;;;;;;;;;5116643;28;20465;-73
2023/03/01 12:06:03;;;;;;;24.40;16.70;;;;;;;;;;5116913;28;20465;-73
2023/03/01 12:08:34;;;;;;;28.63;14.70;;;;;;;;;;5116700;28;20492;-73
2023/03/01 12:11:05;;;;;;;26.00;13.67;;;;;;;;;;5116791;28;20465;-73
2023/03/01 12:14:05;;;;;;;23.23;14.70;;;;;;;;;;5116390;28;20449;-73
2023/03/01 12:16:36;;;;;;;25.57;15.27;;;;;;;;;;5053989;28;20445;-73
2023/03/01 12:19:08;;;;;;;24.40;15.20;;;;;;;;;;5053660;28;20464;-73
2023/03/01 12:21:46;;;;;;;26.30;14.57;;;;;;;;;;5085570;28;20515;-73
2023/03/01 12:24:25;;;;;;;22.30;16.13;;;;;;;;;;5116462;28;20448;-73
2023/03/01 12:27:00;;;;;;;21.63;13.80;;;;;;;;;;5116455;28;20449;-73
2023/03/01 12:29:31;;;;;;;24.57;12.63;;;;;;;;;;5116918;28;20460;-73
2023/03/01 12:32:05;;;;;;;21.50;13.70;;;;;;;;;;5116730;28;20930;-73
2023/03/01 12:34:43;;;;;;;22.23;12.40;;;;;;;;;;5116280;28;20485;-73
2023/03/01 12:37:18;;;;;;;20.23;14.57;;;;;;;;;;5116738;28;20445;-73
2023/03/01 12:39:51;;;;;;;21.57;14.50;;;;;;;;;;5116533;28;20479;-73
2023/03/01 12:42:26;;;;;;;24.40;15.50;;;;;;;;;;5116376;28;20472;-73
2023/03/01 12:45:01;;;;;;;21.40;15.30;;;;;;;;;;5116182;28;20456;-73
2023/03/01 12:47:33;;;;;;;26.77;14.13;;;;;;;;;;5115265;28;20800;-73
2023/03/01 12:50:03;;;;;;;21.90;14.20;;;;;;;;;;5116196;28;20465;-73
2023/03/01 12:52:34;;;;;;;23.37;15.00;;;;;;;;;;5116239;28;20442;-73
2023/03/01 12:55:03;;;;;;;23.77;15.47;;;;;;;;;;5116426;27;20965;-73
2023/03/01 12:57:36;;;;;;;28.43;17.57;;;;;;;;;;5115840;28;20445;-73
2023/03/01 13:00:09;;;;;;;55.03;29.10;;;;;;;;;;5116032;28;20484;-73
2023/03/01 13:02:38;;;;;;;21.83;15.53;;;;;;;;;;5115692;28;20504;-73
2023/03/01 13:05:19;;;;;;;22.47;15.47;;;;;;;;;;5116058;28;20457;-73
2023/03/01 13:07:51;;;;;;;19.17;13.80;;;;;;;;;;5115967;28;20460;-73
2023/03/01 13:10:22;;;;;;;22.60;13.77;;;;;;;;;;5115892;28;20477;-73
2023/03/01 13:12:54;;;;;;;24.53;16.33;;;;;;;;;;5115876;28;20450;-73
2023/03/01 13:15:29;;;;;;;22.13;14.33;;;;;;;;;;5115785;28;20477;-73
2023/03/01 13:17:57;;;;;;;20.77;13.87;;;;;;;;;;5115406;28;20826;-72
2023/03/01 13:20:26;;;;;;;21.43;13.83;;;;;;;;;;5115651;28;20469;-72
2023/03/01 13:23:02;;;;;;;21.50;13.23;;;;;;;;;;5115384;28;20965;-72
2023/03/01 13:25:29;;;;;;;23.40;14.93;;;;;;;;;;5115409;28;20433;-72
2023/03/01 13:28:21;;;;;;;23.63;11.90;;;;;;;;;;5115194;28;20461;-73
2023/03/01 13:30:48;;;;;;;22.37;13.30;;;;;;;;;;5115141;28;20473;-72
2023/03/01 13:33:33;;;;;;;24.43;12.33;;;;;;;;;;5115173;28;20453;-73
2023/03/01 13:36:01;;;;;;;20.27;12.13;;;;;;;;;;5105505;28;20903;-72
2023/03/01 13:38:46;;;;;;;22.27;13.40;;;;;;;;;;5114895;28;20453;-72
2023/03/01 13:41:14;;;;;;;17.47;9.10;;;;;;;;;;5115179;28;20466;-72
2023/03/01 13:43:44;;;;;;;18.50;11.20;;;;;;;;;;5115318;28;20453;-73
2023/03/01 13:46:13;;;;;;;19.57;10.97;;;;;;;;;;5115096;28;20461;-72
2023/03/01 13:48:41;;;;;;;17.63;12.13;;;;;;;;;;5115254;28;20798;-73
2023/03/01 13:51:10;;;;;;;17.47;11.87;;;;;;;;;;5114792;28;20481;-73
2023/03/01 13:53:38;;;;;;;22.87;13.70;;;;;;;;;;5115052;28;20452;-73
2023/03/01 13:56:09;;;;;;;24.27;12.43;;;;;;;;;;5114395;28;20489;-72
2023/03/01 13:58:48;;;;;;;14.30;10.60;;;;;;;;;;5114434;28;20454;-72
2023/03/01 14:01:22;;;;;;;18.40;10.33;;;;;;;;;;5114563;28;21011;-72
2023/03/01 14:03:50;;;;;;;27.33;15.37;;;;;;;;;;5114364;28;20467;-72
2023/03/01 14:06:18;;;;;;;17.77;10.53;;;;;;;;;;5114503;28;20456;-72
2023/03/01 14:08:46;;;;;;;19.60;12.47;;;;;;;;;;5114477;28;20453;-72
2023/03/01 14:11:31;;;;;;;15.33;10.67;;;;;;;;;;5114636;28;20461;-73
2023/03/01 14:14:06;;;;;;;14.77;9.03;;;;;;;;;;5114417;28;20957;-72
2023/03/01 14:16:39;;;;;;;20.97;12.27;;;;;;;;;;5114692;28;20450;-72
2023/03/01 14:19:16;;;;;;;46.70;27.10;;;;;;;;;;5114046;28;20458;-72
2023/03/01 14:21:43;;;;;;;25.43;11.87;;;;;;;;;;5114106;28;20974;-72
2023/03/01 14:24:16;;;;;;;19.97;12.23;;;;;;;;;;5114389;28;20454;-73
2023/03/01 14:26:44;;;;;;;13.90;10.27;;;;;;;;;;5114220;28;20943;-73
2023/03/01 14:29:26;;;;;;;17.37;12.40;;;;;;;;;;5114511;28;20440;-73
2023/03/01 14:31:53;;;;;;;26.70;13.83;;;;;;;;;;5114420;28;20461;-73